Latest Coastal Weather Observations for Cape Wessel

IDD60701

Issued at 6:21 am CST Sunday 21 December 2014 (issued every 10 minutes, with the page automatically refreshed every 10 minutes)

About coastal observations | Map of coastal stations | Coastal observations for NT | Marine services | Other Formats
Station Details ID: 200786 Name: CAPE WESSEL Lat: -11.00 Lon: 136.76 Height: 18.0 m
Data from the previous 72 hours. | See also: Recent months for locations in Northern Territory
Date/Time
CST
Temp

°C
Wind Pressure Rain
since 9am
mm
Weather Cloud Vis
km
Sea
Height
m
Swell
Dir
 
Speed
knots
Gust
knots
hPa Trend Height
m
Period
s
Dir
21/06:00am 26.2 CALM 0 0 1008.3 - 0.0 - - - - - - -
21/05:30am 26.4 CALM 0 5 1007.6 - 0.0 - - - - - - -
21/05:00am 26.8 CALM 0 0 1007.4 - 0.0 - - - - - - -
21/04:30am 26.1 N 3 3 1007.4 - 0.0 - - - - - - -
21/04:00am 26.3 N 3 4 1007.5 - 0.0 - - - - - - -
21/03:30am 26.7 N 3 4 1007.6 - 0.0 - - - - - - -
21/03:00am 27.1 N 4 5 1008.0 - 0.0 - - - - - - -
21/02:30am 27.3 N 5 6 1008.2 - 0.0 - - - - - - -
21/02:00am 27.2 N 3 4 1008.7 - 0.0 - - - - - - -
21/01:30am 27.3 N 3 4 1008.9 - 0.0 - - - - - - -
21/01:00am 27.7 N 4 5 1009.1 - 0.0 - - - - - - -
21/12:30am 27.6 N 4 5 1009.1 - 0.0 - - - - - - -
21/12:00am 27.8 N 4 5 1009.1 - 0.0 - - - - - - -
 
Date/Time
CST
Temp

°C
Wind Pressure Rain
since 9am
mm
Weather Cloud Vis
km
Sea
Height
m
Swell
Dir
 
Speed
knots
Gust
knots
hPa Trend Height
m
Period
s
Dir
20/11:30pm 27.8 N 4 5 1009.3 - 0.0 - - - - - - -
20/11:00pm 27.7 N 4 5 1009.2 - 0.0 - - - - - - -
20/10:30pm 27.7 N 4 5 1009.0 - 0.0 - - - - - - -
20/10:00pm 27.9 N 5 5 1008.8 - 0.0 - - - - - - -
20/09:30pm 27.9 N 4 5 1008.4 - 0.0 - - - - - - -
20/09:00pm 27.7 N 3 4 1008.2 - 0.0 - - - - - - -
20/08:30pm 27.9 N 3 4 1007.9 - 0.0 - - - - - - -
20/08:00pm 28.4 N 4 5 1007.7 - 0.0 - - - - - - -
20/07:30pm 28.5 N 4 5 1007.0 - 0.0 - - - - - - -
20/07:00pm 29.2 N 4 5 1006.9 - 0.0 - - - - - - -
20/06:30pm 30.0 N 4 5 1006.9 - 0.0 - - - - - - -
20/06:00pm 31.2 N 6 6 1006.8 - 0.0 - - - - - - -
20/05:30pm 31.7 N 6 7 1006.7 - 0.0 - - - - - - -
20/05:00pm 32.5 NNW 6 7 1006.7 - 0.0 - - - - - - -
20/04:30pm 33.4 NNW 6 8 1006.4 - 0.0 - - - - - - -
20/04:00pm 33.2 NW 6 8 1006.7 - 0.0 - - - - - - -
20/03:30pm 33.6 NW 6 8 1006.7 - 0.0 - - - - - - -
20/03:00pm 34.0 NW 6 8 1006.9 - 0.0 - - - - - - -
20/02:30pm 33.9 NW 7 8 1007.0 - 0.0 - - - - - - -
20/02:00pm 34.1 NW 7 9 1007.5 - 0.0 - - - - - - -
20/01:30pm 34.1 NW 7 8 1008.0 - 0.0 - - - - - - -
20/01:00pm 34.1 NNW 7 9 1008.1 - 0.0 - - - - - - -
20/12:30pm 34.2 N 8 9 1008.6 - 0.0 - - - - - - -
20/12:00pm 34.2 N 7 8 1008.9 - 0.0 - - - - - - -
20/11:30am 35.5 N 6 8 1009.4 - 0.0 - - - - - - -
20/11:00am 33.7 NW 7 8 1009.6 - 0.0 - - - - - - -
20/10:30am 34.3 NNW 7 9 1010.1 - 0.0 - - - - - - -
20/10:00am 34.9 NW 8 10 1010.1 - 0.0 - - - - - - -
20/09:30am 33.7 N 7 9 1010.1 - 0.0 - - - - - - -
20/09:00am 32.4 N 6 7 1010.0 - 0.0 - - - - - - -
20/08:30am 32.4 N 5 6 1010.2 - 0.0 - - - - - - -
20/08:00am 31.4 NNW 5 6 1010.0 - 0.0 - - - - - - -
20/07:30am 30.8 NNW 5 7 1009.7 - 0.0 - - - - - - -
20/07:00am 29.0 NNW 5 7 1009.3 - 0.0 - - - - - - -
20/06:30am 28.5 N 6 9 1008.7 - 0.0 - - - - - - -
20/06:00am 28.0 N 8 11 1008.1 - 0.0 - - - - - - -
20/05:30am 27.8 N 7 9 1007.9 - 0.0 - - - - - - -
20/05:00am 27.8 N 7 8 1007.7 - 0.0 - - - - - - -
20/04:30am 27.8 N 7 8 1007.7 - 0.0 - - - - - - -
20/04:00am 27.9 N 6 7 1007.8 - 0.0 - - - - - - -
20/03:30am 27.9 N 7 8 1007.8 - 0.0 - - - - - - -
20/03:00am 28.0 N 7 9 1008.1 - 0.0 - - - - - - -
20/02:30am 27.5 N 6 7 1008.3 - 0.0 - - - - - - -
20/02:00am 27.5 N 4 5 1008.5 - 0.0 - - - - - - -
20/01:30am 27.9 N 3 4 1009.1 - 0.0 - - - - - - -
20/01:00am 28.2 CALM 0 0 1009.5 - 0.0 - - - - - - -
20/12:30am 28.0 CALM 0 0 1010.1 - 0.0 - - - - - - -
20/12:00am 27.5 CALM 0 0 1010.7 - 0.0 - - - - - - -
 
Date/Time
CST
Temp

°C
Wind Pressure Rain
since 9am
mm
Weather Cloud Vis
km
Sea
Height
m
Swell
Dir
 
Speed
knots
Gust
knots
hPa Trend Height
m
Period
s
Dir
19/11:30pm 27.8 N 3 4 1010.7 - 0.0 - - - - - - -
19/11:00pm 28.1 N 4 5 1010.9 - 0.0 - - - - - - -
19/10:30pm 28.1 N 3 4 1010.8 - 0.0 - - - - - - -
19/10:00pm 28.2 NE 3 4 1010.8 - 0.0 - - - - - - -
19/09:30pm 28.7 NE 5 6 1010.5 - 0.0 - - - - - - -
19/09:00pm 28.9 NE 5 6 1010.3 - 0.0 - - - - - - -
19/08:30pm 29.1 NNE 6 7 1009.7 - 0.0 - - - - - - -
19/08:00pm 29.3 NE 6 7 1009.5 - 0.0 - - - - - - -
19/07:30pm 29.4 NNE 6 7 1009.4 - 0.0 - - - - - - -
19/07:00pm 29.6 NNE 6 7 1008.9 - 0.0 - - - - - - -
19/06:30pm 30.3 NNE 6 7 1008.4 - 0.0 - - - - - - -
19/06:00pm 31.6 NE 6 7 1008.2 - 0.0 - - - - - - -
19/05:30pm 31.7 N 5 7 1008.0 - 0.0 - - - - - - -
19/05:00pm 31.4 N 5 7 1007.9 - 0.0 - - - - - - -
19/04:30pm 33.6 NNW 6 7 1007.9 - 0.0 - - - - - - -
19/04:00pm 33.1 NNW 5 7 1008.1 - 0.0 - - - - - - -
19/03:30pm 34.7 NNW 6 9 1008.1 - 0.0 - - - - - - -
19/03:00pm 34.9 NNW 7 9 1008.4 - 0.0 - - - - - - -
19/02:30pm 34.8 NW 7 9 1008.6 - 0.0 - - - - - - -
19/02:00pm 34.9 NNW 6 8 1008.8 - 0.0 - - - - - - -
19/01:30pm 34.6 N 6 8 1009.2 - 0.0 - - - - - - -
19/01:00pm 34.7 N 6 8 1009.5 - 0.0 - - - - - - -
19/12:30pm 34.1 N 7 8 1010.0 - 0.0 - - - - - - -
19/12:00pm 34.0 N 6 8 1010.4 - 0.0 - - - - - - -
19/11:30am 34.7 N 7 9 1010.5 - 0.0 - - - - - - -
19/11:00am 34.2 NNE 8 9 1010.6 - 0.0 - - - - - - -
19/10:30am 33.4 N 7 9 1010.5 - 0.0 - - - - - - -
19/10:00am 33.3 N 7 8 1011.1 - 0.0 - - - - - - -
19/09:30am 33.3 NNE 6 8 1011.3 - 0.0 - - - - - - -
19/09:00am 33.0 NE 5 7 1011.5 - 0.0 - - - - - - -
19/08:30am 32.1 NNE 5 7 1011.1 - 0.0 - - - - - - -
19/08:00am 31.4 NE 6 6 1010.7 - 0.0 - - - - - - -
19/07:30am 30.6 NNE 6 8 1010.8 - 0.0 - - - - - - -
19/07:00am 29.0 NNE 5 6 1010.7 - 0.0 - - - - - - -
19/06:30am 27.4 N 3 4 1010.5 - 0.0 - - - - - - -
19/06:00am 26.7 N 4 5 1010.3 - 0.0 - - - - - - -
19/05:30am 26.4 N 3 4 1009.7 - 0.0 - - - - - - -
19/05:00am 27.0 N 5 6 1009.5 - 0.0 - - - - - - -
19/04:30am 27.0 N 5 6 1009.3 - 0.0 - - - - - - -
19/04:00am 27.0 NNE 5 7 1009.0 - 0.0 - - - - - - -
19/03:30am 26.9 NE 5 6 1008.7 - 0.0 - - - - - - -
19/03:00am 26.9 NE 5 6 1008.8 - 0.0 - - - - - - -
19/02:30am 26.7 NNE 4 5 1008.6 - 0.0 - - - - - - -
19/02:00am 26.7 CALM 0 0 1008.9 - 0.0 - - - - - - -
19/01:30am 26.5 CALM 0 0 1009.3 - 0.0 - - - - - - -
19/01:00am 26.8 ENE 3 4 1009.7 - 0.0 - - - - - - -
19/12:30am 27.2 ENE 4 5 1009.9 - 0.0 - - - - - - -
19/12:00am 27.5 E 4 4 1010.0 - 0.0 - - - - - - -
 
Date/Time
CST
Temp

°C
Wind Pressure Rain
since 9am
mm
Weather Cloud Vis
km
Sea
Height
m
Swell
Dir
 
Speed
knots
Gust
knots
hPa Trend Height
m
Period
s
Dir
18/11:30pm 28.1 E 5 6 1010.1 - 0.0 - - - - - - -
18/11:00pm 28.3 ENE 4 6 1010.0 - 0.0 - - - - - - -
18/10:30pm 28.7 NE 6 7 1010.0 - 0.0 - - - - - - -
18/10:00pm 28.5 ENE 5 6 1009.8 - 0.0 - - - - - - -
18/09:30pm 28.3 ENE 5 6 1009.5 - 0.0 - - - - - - -
18/09:00pm 28.4 ENE 5 6 1009.1 - 0.0 - - - - - - -
18/08:30pm 28.6 ENE 4 6 1008.6 - 0.0 - - - - - - -
18/08:00pm 29.0 E 5 6 1008.4 - 0.0 - - - - - - -
18/07:30pm 29.2 ENE 5 6 1008.1 - 0.0 - - - - - - -
18/07:00pm 29.6 NE 5 7 1007.8 - 0.0 - - - - - - -
18/06:30pm 30.6 NE 4 5 1007.7 - 0.0 - - - - - - -
18/06:00pm 31.5 ENE 4 6 1007.9 - 0.0 - - - - - - -
18/05:30pm 32.6 NNE 5 6 1007.7 - 0.0 - - - - - - -
18/05:00pm 32.8 NNE 5 7 1007.8 - 0.0 - - - - - - -
18/04:30pm 33.5 NNE 6 7 1007.6 - 0.0 - - - - - - -
18/04:00pm 33.7 N 7 8 1007.7 - 0.0 - - - - - - -
18/03:30pm 34.3 N 7 8 1007.9 - 0.0 - - - - - - -
18/03:00pm 34.4 N 7 9 1008.1 - 0.0 - - - - - - -
18/02:30pm 34.0 N 7 9 1008.4 - 0.0 - - - - - - -
18/02:00pm 35.1 NNE 7 9 1008.8 - 0.0 - - - - - - -
18/01:30pm 34.5 NNE 7 9 1009.0 - 0.0 - - - - - - -
18/01:00pm 35.0 N 7 9 1009.2 - 0.0 - - - - - - -
18/12:30pm 34.2 N 8 9 1009.5 - 0.0 - - - - - - -
18/12:00pm 34.6 N 7 9 1010.0 - 0.0 - - - - - - -
18/11:30am 34.0 N 7 9 1010.2 - 0.0 - - - - - - -
18/11:00am 33.9 N 7 9 1010.4 - 0.0 - - - - - - -
18/10:30am 33.1 NNE 7 8 1010.7 - 0.0 - - - - - - -
18/10:00am 33.9 N 7 8 1010.5 - 0.0 - - - - - - -
18/09:30am 33.2 NNE 7 8 1010.7 - 0.0 - - - - - - -
18/09:00am 32.8 NNE 6 7 1010.8 - 0.0 - - - - - - -
18/08:30am 32.5 N 6 7 1010.4 - 0.0 - - - - - - -
18/08:00am 31.5 N 6 7 1010.3 - 0.0 - - - - - - -
18/07:30am 30.9 NNE 5 6 1010.0 - 0.0 - - - - - - -
18/07:00am 29.8 NE 5 6 1009.7 - 0.0 - - - - - - -
18/06:30am 28.2 NNE 4 5 1009.2 - 0.0 - - - - - - -

Other Formats:

Comma delimited format used in spreadsheet applications
http://www.bom.gov.au/fwo/IDD60701/IDD60701.94147.axf

JavaScript Object Notation format (JSON) in row-major order
http://www.bom.gov.au/fwo/IDD60701/IDD60701.94147.json